sensor_id;sensor_type;location;lat;lon;timestamp;temperature;humidity
6118;DHT22;3089;48.202;11.510;2023-03-20T00:00:50;9.50;99.90
6118;DHT22;3089;48.202;11.510;2023-03-20T00:03:18;9.50;99.90
6118;DHT22;3089;48.202;11.510;2023-03-20T00:05:46;9.40;99.90
6118;DHT22;3089;48.202;11.510;2023-03-20T00:08:14;9.40;99.90
6118;DHT22;3089;48.202;11.510;2023-03-20T00:10:45;9.40;99.90
6118;DHT22;3089;48.202;11.510;2023-03-20T00:13:17;9.50;99.90
6118;DHT22;3089;48.202;11.510;2023-03-20T00:15:48;9.40;99.90
6118;DHT22;3089;48.202;11.510;2023-03-20T00:18:19;9.40;99.90
6118;DHT22;3089;48.202;11.510;2023-03-20T00:20:49;9.40;99.90
6118;DHT22;3089;48.202;11.510;2023-03-20T00:23:17;9.40;99.90
6118;DHT22;3089;48.202;11.510;2023-03-20T00:25:46;9.40;99.90
6118;DHT22;3089;48.202;11.510;2023-03-20T00:28:29;9.40;99.90
6118;DHT22;3089;48.202;11.510;2023-03-20T00:30:58;9.40;99.90
6118;DHT22;3089;48.202;11.510;2023-03-20T00:33:25;9.40;99.90
6118;DHT22;3089;48.202;11.510;2023-03-20T00:35:53;9.30;99.90
6118;DHT22;3089;48.202;11.510;2023-03-20T00:38:22;9.30;99.90
6118;DHT22;3089;48.202;11.510;2023-03-20T00:40:51;9.30;99.90
6118;DHT22;3089;48.202;11.510;2023-03-20T00:43:20;9.30;99.90
6118;DHT22;3089;48.202;11.510;2023-03-20T00:45:49;9.30;99.90
6118;DHT22;3089;48.202;11.510;2023-03-20T00:48:17;9.30;99.90
6118;DHT22;3089;48.202;11.510;2023-03-20T00:50:45;9.30;99.90
6118;DHT22;3089;48.202;11.510;2023-03-20T00:53:13;9.30;99.90
6118;DHT22;3089;48.202;11.510;2023-03-20T00:55:40;9.30;99.90
6118;DHT22;3089;48.202;11.510;2023-03-20T00:58:10;9.30;99.90
6118;DHT22;3089;48.202;11.510;2023-03-20T01:00:39;9.30;99.90
6118;DHT22;3089;48.202;11.510;2023-03-20T01:03:14;9.30;99.90
6118;DHT22;3089;48.202;11.510;2023-03-20T01:05:43;9.20;99.90
6118;DHT22;3089;48.202;11.510;2023-03-20T01:08:13;9.30;99.90
6118;DHT22;3089;48.202;11.510;2023-03-20T01:10:42;9.30;99.90
6118;DHT22;3089;48.202;11.510;2023-03-20T01:13:19;9.30;99.90
6118;DHT22;3089;48.202;11.510;2023-03-20T01:15:48;9.30;99.90
6118;DHT22;3089;48.202;11.510;2023-03-20T01:18:18;9.30;99.90
6118;DHT22;3089;48.202;11.510;2023-03-20T01:20:47;9.20;99.90
6118;DHT22;3089;48.202;11.510;2023-03-20T01:23:16;9.20;99.90
6118;DHT22;3089;48.202;11.510;2023-03-20T01:25:44;9.20;99.90
6118;DHT22;3089;48.202;11.510;2023-03-20T01:28:16;9.20;99.90
6118;DHT22;3089;48.202;11.510;2023-03-20T01:30:45;9.20;99.90
6118;DHT22;3089;48.202;11.510;2023-03-20T01:33:15;9.20;99.90
6118;DHT22;3089;48.202;11.510;2023-03-20T01:35:44;9.20;99.90
6118;DHT22;3089;48.202;11.510;2023-03-20T01:38:14;9.20;99.90
6118;DHT22;3089;48.202;11.510;2023-03-20T01:40:49;9.10;99.90
6118;DHT22;3089;48.202;11.510;2023-03-20T01:43:22;9.20;99.90
6118;DHT22;3089;48.202;11.510;2023-03-20T01:45:58;9.20;99.90
6118;DHT22;3089;48.202;11.510;2023-03-20T01:48:53;9.10;99.90
6118;DHT22;3089;48.202;11.510;2023-03-20T01:51:23;9.10;99.90
6118;DHT22;3089;48.202;11.510;2023-03-20T01:53:55;9.10;99.90
6118;DHT22;3089;48.202;11.510;2023-03-20T01:56:24;9.10;99.90
6118;DHT22;3089;48.202;11.510;2023-03-20T01:58:58;9.10;99.90
6118;DHT22;3089;48.202;11.510;2023-03-20T02:01:27;9.10;99.90
6118;DHT22;3089;48.202;11.510;2023-03-20T02:03:56;9.10;99.90
6118;DHT22;3089;48.202;11.510;2023-03-20T02:06:24;9.10;99.90
6118;DHT22;3089;48.202;11.510;2023-03-20T02:08:52;9.10;99.90
6118;DHT22;3089;48.202;11.510;2023-03-20T02:11:22;9.00;99.90
6118;DHT22;3089;48.202;11.510;2023-03-20T02:13:52;9.00;99.90
6118;DHT22;3089;48.202;11.510;2023-03-20T02:16:22;9.00;99.90
6118;DHT22;3089;48.202;11.510;2023-03-20T02:18:51;9.00;99.90
6118;DHT22;3089;48.202;11.510;2023-03-20T02:22:05;9.00;99.90
6118;DHT22;3089;48.202;11.510;2023-03-20T02:27:48;9.00;99.90
6118;DHT22;3089;48.202;11.510;2023-03-20T02:30:51;8.90;99.90
6118;DHT22;3089;48.202;11.510;2023-03-20T02:33:43;8.90;99.90
6118;DHT22;3089;48.202;11.510;2023-03-20T02:36:57;8.90;99.90
6118;DHT22;3089;48.202;11.510;2023-03-20T02:39:43;8.90;99.90
6118;DHT22;3089;48.202;11.510;2023-03-20T02:42:17;9.00;99.90
6118;DHT22;3089;48.202;11.510;2023-03-20T02:44:52;8.90;99.90
6118;DHT22;3089;48.202;11.510;2023-03-20T02:47:27;9.00;99.90
6118;DHT22;3089;48.202;11.510;2023-03-20T02:50:02;9.00;99.90
6118;DHT22;3089;48.202;11.510;2023-03-20T02:52:40;8.90;99.90
6118;DHT22;3089;48.202;11.510;2023-03-20T02:55:16;8.90;99.90
6118;DHT22;3089;48.202;11.510;2023-03-20T02:57:51;8.90;99.90
6118;DHT22;3089;48.202;11.510;2023-03-20T03:00:27;8.90;99.90
6118;DHT22;3089;48.202;11.510;2023-03-20T03:03:00;8.90;99.90
6118;DHT22;3089;48.202;11.510;2023-03-20T03:05:35;8.90;99.90
6118;DHT22;3089;48.202;11.510;2023-03-20T03:08:05;8.90;99.90
6118;DHT22;3089;48.202;11.510;2023-03-20T03:10:40;8.90;99.90
6118;DHT22;3089;48.202;11.510;2023-03-20T03:13:12;8.90;99.90
6118;DHT22;3089;48.202;11.510;2023-03-20T03:15:43;8.90;99.90
6118;DHT22;3089;48.202;11.510;2023-03-20T03:18:16;8.80;99.90
6118;DHT22;3089;48.202;11.510;2023-03-20T03:20:47;8.90;99.90
6118;DHT22;3089;48.202;11.510;2023-03-20T03:23:19;8.90;99.90
6118;DHT22;3089;48.202;11.510;2023-03-20T03:25:51;8.90;99.90
6118;DHT22;3089;48.202;11.510;2023-03-20T03:28:26;8.80;99.90
6118;DHT22;3089;48.202;11.510;2023-03-20T03:30:56;8.80;99.90
6118;DHT22;3089;48.202;11.510;2023-03-20T03:33:27;8.80;99.90
6118;DHT22;3089;48.202;11.510;2023-03-20T03:36:01;8.80;99.90
6118;DHT22;3089;48.202;11.510;2023-03-20T03:38:37;8.80;99.90
6118;DHT22;3089;48.202;11.510;2023-03-20T03:41:19;8.80;99.90
6118;DHT22;3089;48.202;11.510;2023-03-20T03:43:55;8.80;99.90
6118;DHT22;3089;48.202;11.510;2023-03-20T03:46:28;8.80;99.90
6118;DHT22;3089;48.202;11.510;2023-03-20T03:49:02;8.80;99.90
6118;DHT22;3089;48.202;11.510;2023-03-20T03:51:33;8.80;99.90
6118;DHT22;3089;48.202;11.510;2023-03-20T03:54:08;8.80;99.90
6118;DHT22;3089;48.202;11.510;2023-03-20T03:56:40;8.80;99.90
6118;DHT22;3089;48.202;11.510;2023-03-20T03:59:13;8.80;99.90
6118;DHT22;3089;48.202;11.510;2023-03-20T04:01:47;8.80;99.90
6118;DHT22;3089;48.202;11.510;2023-03-20T04:04:18;8.80;99.90
6118;DHT22;3089;48.202;11.510;2023-03-20T04:06:47;8.80;99.90
6118;DHT22;3089;48.202;11.510;2023-03-20T04:09:15;8.80;99.90
6118;DHT22;3089;48.202;11.510;2023-03-20T04:11:46;8.70;99.90
6118;DHT22;3089;48.202;11.510;2023-03-20T04:14:15;8.80;99.90
6118;DHT22;3089;48.202;11.510;2023-03-20T04:16:43;8.80;99.90
6118;DHT22;3089;48.202;11.510;2023-03-20T04:19:11;8.70;99.90
6118;DHT22;3089;48.202;11.510;2023-03-20T04:21:39;8.70;99.90
6118;DHT22;3089;48.202;11.510;2023-03-20T04:24:07;8.80;99.90
6118;DHT22;3089;48.202;11.510;2023-03-20T04:26:35;8.80;99.90
6118;DHT22;3089;48.202;11.510;2023-03-20T04:29:04;8.70;99.90
6118;DHT22;3089;48.202;11.510;2023-03-20T04:31:32;8.80;99.90
6118;DHT22;3089;48.202;11.510;2023-03-20T04:34:00;8.80;99.90
6118;DHT22;3089;48.202;11.510;2023-03-20T04:36:28;8.80;99.90
6118;DHT22;3089;48.202;11.510;2023-03-20T04:38:56;8.70;99.90
6118;DHT22;3089;48.202;11.510;2023-03-20T04:41:23;8.80;99.90
6118;DHT22;3089;48.202;11.510;2023-03-20T04:43:52;8.70;99.90
6118;DHT22;3089;48.202;11.510;2023-03-20T04:46:21;8.70;99.90
6118;DHT22;3089;48.202;11.510;2023-03-20T04:48:49;8.70;99.90
6118;DHT22;3089;48.202;11.510;2023-03-20T04:51:16;8.70;99.90
6118;DHT22;3089;48.202;11.510;2023-03-20T04:53:44;8.70;99.90
6118;DHT22;3089;48.202;11.510;2023-03-20T04:56:13;8.70;99.90
6118;DHT22;3089;48.202;11.510;2023-03-20T04:58:41;8.70;99.90
6118;DHT22;3089;48.202;11.510;2023-03-20T05:01:09;8.70;99.90
6118;DHT22;3089;48.202;11.510;2023-03-20T05:03:38;8.60;99.90
6118;DHT22;3089;48.202;11.510;2023-03-20T05:06:07;8.70;99.90
6118;DHT22;3089;48.202;11.510;2023-03-20T05:08:35;8.70;99.90
6118;DHT22;3089;48.202;11.510;2023-03-20T05:11:03;8.60;99.90
6118;DHT22;3089;48.202;11.510;2023-03-20T05:13:31;8.70;99.90
6118;DHT22;3089;48.202;11.510;2023-03-20T05:15:59;8.60;99.90
6118;DHT22;3089;48.202;11.510;2023-03-20T05:18:27;8.60;99.90
6118;DHT22;3089;48.202;11.510;2023-03-20T05:20:56;8.60;99.90
6118;DHT22;3089;48.202;11.510;2023-03-20T05:23:24;8.70;99.90
6118;DHT22;3089;48.202;11.510;2023-03-20T05:25:52;8.60;99.90
6118;DHT22;3089;48.202;11.510;2023-03-20T05:28:19;8.60;99.90
6118;DHT22;3089;48.202;11.510;2023-03-20T05:30:47;8.60;99.90
6118;DHT22;3089;48.202;11.510;2023-03-20T05:33:15;8.60;99.90
6118;DHT22;3089;48.202;11.510;2023-03-20T05:35:43;8.60;99.90
6118;DHT22;3089;48.202;11.510;2023-03-20T05:38:13;8.60;99.90
6118;DHT22;3089;48.202;11.510;2023-03-20T05:40:41;8.60;99.90
6118;DHT22;3089;48.202;11.510;2023-03-20T05:43:09;8.60;99.90
6118;DHT22;3089;48.202;11.510;2023-03-20T05:45:36;8.60;99.90
6118;DHT22;3089;48.202;11.510;2023-03-20T05:48:05;8.60;99.90
6118;DHT22;3089;48.202;11.510;2023-03-20T05:50:33;8.50;99.90
6118;DHT22;3089;48.202;11.510;2023-03-20T05:53:00;8.50;99.90
6118;DHT22;3089;48.202;11.510;2023-03-20T05:55:30;8.40;99.90
6118;DHT22;3089;48.202;11.510;2023-03-20T05:57:58;8.50;99.90
6118;DHT22;3089;48.202;11.510;2023-03-20T06:00:26;8.50;99.90
6118;DHT22;3089;48.202;11.510;2023-03-20T06:02:55;8.50;99.90
6118;DHT22;3089;48.202;11.510;2023-03-20T06:05:23;8.50;99.90
6118;DHT22;3089;48.202;11.510;2023-03-20T06:07:51;8.50;99.90
6118;DHT22;3089;48.202;11.510;2023-03-20T06:10:18;8.50;99.90
6118;DHT22;3089;48.202;11.510;2023-03-20T06:12:48;8.60;99.90
6118;DHT22;3089;48.202;11.510;2023-03-20T06:15:16;8.60;99.90
6118;DHT22;3089;48.202;11.510;2023-03-20T06:17:44;8.50;99.90
6118;DHT22;3089;48.202;11.510;2023-03-20T06:20:12;8.50;99.90
6118;DHT22;3089;48.202;11.510;2023-03-20T06:22:40;8.50;99.90
6118;DHT22;3089;48.202;11.510;2023-03-20T06:25:08;8.50;99.90
6118;DHT22;3089;48.202;11.510;2023-03-20T06:27:36;8.50;99.90
6118;DHT22;3089;48.202;11.510;2023-03-20T06:30:07;8.50;99.90
6118;DHT22;3089;48.202;11.510;2023-03-20T06:32:35;8.60;99.90
6118;DHT22;3089;48.202;11.510;2023-03-20T06:35:04;8.60;99.90
6118;DHT22;3089;48.202;11.510;2023-03-20T06:37:33;8.60;99.90
6118;DHT22;3089;48.202;11.510;2023-03-20T06:40:02;8.60;99.90
6118;DHT22;3089;48.202;11.510;2023-03-20T06:42:30;8.60;99.90
6118;DHT22;3089;48.202;11.510;2023-03-20T06:44:58;8.50;99.90
6118;DHT22;3089;48.202;11.510;2023-03-20T06:47:27;8.60;99.90
6118;DHT22;3089;48.202;11.510;2023-03-20T06:49:55;8.60;99.90
6118;DHT22;3089;48.202;11.510;2023-03-20T06:52:22;8.60;99.90
6118;DHT22;3089;48.202;11.510;2023-03-20T06:54:50;8.70;99.90
6118;DHT22;3089;48.202;11.510;2023-03-20T06:57:18;8.70;99.90
6118;DHT22;3089;48.202;11.510;2023-03-20T06:59:46;8.80;99.90
6118;DHT22;3089;48.202;11.510;2023-03-20T07:02:14;8.80;99.90
6118;DHT22;3089;48.202;11.510;2023-03-20T07:04:43;8.80;99.90
6118;DHT22;3089;48.202;11.510;2023-03-20T07:07:12;9.00;99.90
6118;DHT22;3089;48.202;11.510;2023-03-20T07:09:40;9.10;99.90
6118;DHT22;3089;48.202;11.510;2023-03-20T07:12:10;9.10;99.90
6118;DHT22;3089;48.202;11.510;2023-03-20T07:14:40;9.20;99.90
6118;DHT22;3089;48.202;11.510;2023-03-20T07:17:08;9.40;99.90
6118;DHT22;3089;48.202;11.510;2023-03-20T07:19:36;9.50;99.90
6118;DHT22;3089;48.202;11.510;2023-03-20T07:22:07;9.60;99.90
6118;DHT22;3089;48.202;11.510;2023-03-20T07:24:38;9.30;99.90
6118;DHT22;3089;48.202;11.510;2023-03-20T07:27:06;9.20;99.90
6118;DHT22;3089;48.202;11.510;2023-03-20T07:29:34;9.00;99.90
6118;DHT22;3089;48.202;11.510;2023-03-20T07:32:02;9.00;99.90
6118;DHT22;3089;48.202;11.510;2023-03-20T07:34:30;8.90;99.90
6118;DHT22;3089;48.202;11.510;2023-03-20T07:36:58;8.80;99.90
6118;DHT22;3089;48.202;11.510;2023-03-20T07:39:27;8.80;99.90
6118;DHT22;3089;48.202;11.510;2023-03-20T07:41:55;8.80;99.90
6118;DHT22;3089;48.202;11.510;2023-03-20T07:44:23;8.80;99.90
6118;DHT22;3089;48.202;11.510;2023-03-20T07:46:51;8.80;99.90
6118;DHT22;3089;48.202;11.510;2023-03-20T07:49:22;8.70;99.90
6118;DHT22;3089;48.202;11.510;2023-03-20T07:51:50;8.70;99.90
6118;DHT22;3089;48.202;11.510;2023-03-20T07:54:20;8.80;99.90
6118;DHT22;3089;48.202;11.510;2023-03-20T07:56:49;9.00;99.90
6118;DHT22;3089;48.202;11.510;2023-03-20T07:59:17;9.10;99.90
6118;DHT22;3089;48.202;11.510;2023-03-20T08:01:46;9.40;99.90
6118;DHT22;3089;48.202;11.510;2023-03-20T08:04:13;9.40;99.90
6118;DHT22;3089;48.202;11.510;2023-03-20T08:06:45;9.50;99.90
6118;DHT22;3089;48.202;11.510;2023-03-20T08:09:12;9.70;99.90
6118;DHT22;3089;48.202;11.510;2023-03-20T08:11:40;10.10;99.90
6118;DHT22;3089;48.202;11.510;2023-03-20T08:14:09;10.10;99.90
6118;DHT22;3089;48.202;11.510;2023-03-20T08:16:37;10.20;99.90
6118;DHT22;3089;48.202;11.510;2023-03-20T08:19:05;10.50;99.90
6118;DHT22;3089;48.202;11.510;2023-03-20T08:21:33;10.40;99.90
6118;DHT22;3089;48.202;11.510;2023-03-20T08:24:01;10.60;99.90
6118;DHT22;3089;48.202;11.510;2023-03-20T08:26:29;10.50;99.90
6118;DHT22;3089;48.202;11.510;2023-03-20T08:28:57;10.40;99.90
6118;DHT22;3089;48.202;11.510;2023-03-20T08:31:26;10.20;99.90
6118;DHT22;3089;48.202;11.510;2023-03-20T08:33:55;10.20;99.90
6118;DHT22;3089;48.202;11.510;2023-03-20T08:36:23;10.00;99.90
6118;DHT22;3089;48.202;11.510;2023-03-20T08:38:51;9.90;99.90
6118;DHT22;3089;48.202;11.510;2023-03-20T08:41:19;9.90;99.90
6118;DHT22;3089;48.202;11.510;2023-03-20T08:43:46;9.90;99.90
6118;DHT22;3089;48.202;11.510;2023-03-20T08:46:14;9.90;99.90
6118;DHT22;3089;48.202;11.510;2023-03-20T08:48:43;9.90;99.90
6118;DHT22;3089;48.202;11.510;2023-03-20T08:51:11;10.00;99.90
6118;DHT22;3089;48.202;11.510;2023-03-20T08:53:39;10.10;99.90
6118;DHT22;3089;48.202;11.510;2023-03-20T08:56:08;10.00;99.90
6118;DHT22;3089;48.202;11.510;2023-03-20T08:58:36;10.00;99.90
6118;DHT22;3089;48.202;11.510;2023-03-20T09:01:05;9.90;99.90
6118;DHT22;3089;48.202;11.510;2023-03-20T09:03:34;9.80;99.90
6118;DHT22;3089;48.202;11.510;2023-03-20T09:06:06;10.00;99.90
6118;DHT22;3089;48.202;11.510;2023-03-20T09:08:34;10.10;99.90
6118;DHT22;3089;48.202;11.510;2023-03-20T09:11:03;10.10;99.90
6118;DHT22;3089;48.202;11.510;2023-03-20T09:13:31;10.20;99.90
6118;DHT22;3089;48.202;11.510;2023-03-20T09:15:59;10.30;99.90
6118;DHT22;3089;48.202;11.510;2023-03-20T09:18:27;10.30;99.90
6118;DHT22;3089;48.202;11.510;2023-03-20T09:20:54;10.40;99.90
6118;DHT22;3089;48.202;11.510;2023-03-20T09:23:24;10.50;99.90
6118;DHT22;3089;48.202;11.510;2023-03-20T09:25:52;10.60;99.90
6118;DHT22;3089;48.202;11.510;2023-03-20T09:28:19;10.60;99.90
6118;DHT22;3089;48.202;11.510;2023-03-20T09:30:47;10.50;99.90
6118;DHT22;3089;48.202;11.510;2023-03-20T09:33:15;10.50;99.90
6118;DHT22;3089;48.202;11.510;2023-03-20T09:35:44;10.40;99.90
6118;DHT22;3089;48.202;11.510;2023-03-20T09:38:12;10.30;99.90
6118;DHT22;3089;48.202;11.510;2023-03-20T09:40:49;10.40;99.90
6118;DHT22;3089;48.202;11.510;2023-03-20T09:43:28;10.40;99.90
6118;DHT22;3089;48.202;11.510;2023-03-20T09:46:07;10.40;99.90
6118;DHT22;3089;48.202;11.510;2023-03-20T09:48:40;10.50;99.90
6118;DHT22;3089;48.202;11.510;2023-03-20T09:51:15;10.50;99.90
6118;DHT22;3089;48.202;11.510;2023-03-20T09:53:50;10.70;99.90
6118;DHT22;3089;48.202;11.510;2023-03-20T09:56:25;10.80;99.90
6118;DHT22;3089;48.202;11.510;2023-03-20T09:58:54;10.90;99.90
6118;DHT22;3089;48.202;11.510;2023-03-20T10:01:26;10.90;99.90
6118;DHT22;3089;48.202;11.510;2023-03-20T10:03:58;11.10;99.90
6118;DHT22;3089;48.202;11.510;2023-03-20T10:06:27;11.10;99.90
6118;DHT22;3089;48.202;11.510;2023-03-20T10:08:55;11.00;99.90
6118;DHT22;3089;48.202;11.510;2023-03-20T10:11:38;11.10;99.90
6118;DHT22;3089;48.202;11.510;2023-03-20T10:14:20;11.50;99.90
6118;DHT22;3089;48.202;11.510;2023-03-20T10:17:03;11.80;99.90
6118;DHT22;3089;48.202;11.510;2023-03-20T10:19:42;12.40;99.90
6118;DHT22;3089;48.202;11.510;2023-03-20T10:22:16;12.40;99.90
6118;DHT22;3089;48.202;11.510;2023-03-20T10:24:53;12.10;99.90
6118;DHT22;3089;48.202;11.510;2023-03-20T10:27:25;11.60;99.90
6118;DHT22;3089;48.202;11.510;2023-03-20T10:30:06;11.40;99.90
6118;DHT22;3089;48.202;11.510;2023-03-20T10:32:43;11.20;99.90
6118;DHT22;3089;48.202;11.510;2023-03-20T10:35:19;11.10;99.90
6118;DHT22;3089;48.202;11.510;2023-03-20T10:37:58;11.10;99.90
6118;DHT22;3089;48.202;11.510;2023-03-20T10:40:29;11.30;99.90
6118;DHT22;3089;48.202;11.510;2023-03-20T10:43:02;11.50;99.90
6118;DHT22;3089;48.202;11.510;2023-03-20T10:45:37;11.70;99.90
6118;DHT22;3089;48.202;11.510;2023-03-20T10:48:13;11.60;99.90
6118;DHT22;3089;48.202;11.510;2023-03-20T10:50:44;11.80;99.90
6118;DHT22;3089;48.202;11.510;2023-03-20T10:53:22;11.80;99.90
6118;DHT22;3089;48.202;11.510;2023-03-20T10:55:53;11.90;99.90
6118;DHT22;3089;48.202;11.510;2023-03-20T10:58:27;11.80;99.90
6118;DHT22;3089;48.202;11.510;2023-03-20T11:00:57;12.00;99.90
6118;DHT22;3089;48.202;11.510;2023-03-20T11:03:27;12.30;99.90
6118;DHT22;3089;48.202;11.510;2023-03-20T11:06:01;12.60;99.90
6118;DHT22;3089;48.202;11.510;2023-03-20T11:08:38;12.60;99.90
6118;DHT22;3089;48.202;11.510;2023-03-20T11:11:06;12.30;99.90
6118;DHT22;3089;48.202;11.510;2023-03-20T11:13:39;12.00;99.90
6118;DHT22;3089;48.202;11.510;2023-03-20T11:16:13;12.20;99.90
6118;DHT22;3089;48.202;11.510;2023-03-20T11:18:43;12.50;99.90
6118;DHT22;3089;48.202;11.510;2023-03-20T11:21:17;12.80;99.90
6118;DHT22;3089;48.202;11.510;2023-03-20T11:23:46;12.60;99.90
6118;DHT22;3089;48.202;11.510;2023-03-20T11:26:16;12.40;99.90
6118;DHT22;3089;48.202;11.510;2023-03-20T11:28:50;12.10;99.90
6118;DHT22;3089;48.202;11.510;2023-03-20T11:31:24;12.10;99.90
6118;DHT22;3089;48.202;11.510;2023-03-20T11:34:00;12.00;99.90
6118;DHT22;3089;48.202;11.510;2023-03-20T11:36:36;11.90;99.90
6118;DHT22;3089;48.202;11.510;2023-03-20T11:39:12;12.00;99.90
6118;DHT22;3089;48.202;11.510;2023-03-20T11:41:41;12.10;99.90
6118;DHT22;3089;48.202;11.510;2023-03-20T11:44:26;12.20;99.90
6118;DHT22;3089;48.202;11.510;2023-03-20T11:46:56;12.20;99.90
6118;DHT22;3089;48.202;11.510;2023-03-20T11:49:25;12.00;99.90
6118;DHT22;3089;48.202;11.510;2023-03-20T11:51:58;12.00;99.90
6118;DHT22;3089;48.202;11.510;2023-03-20T11:54:27;11.90;99.90
6118;DHT22;3089;48.202;11.510;2023-03-20T11:56:57;11.80;99.90
6118;DHT22;3089;48.202;11.510;2023-03-20T11:59:29;11.90;99.90
6118;DHT22;3089;48.202;11.510;2023-03-20T12:02:01;11.70;99.90
6118;DHT22;3089;48.202;11.510;2023-03-20T12:04:31;11.90;99.90
6118;DHT22;3089;48.202;11.510;2023-03-20T12:07:03;11.80;99.90
6118;DHT22;3089;48.202;11.510;2023-03-20T12:09:39;11.90;99.90
6118;DHT22;3089;48.202;11.510;2023-03-20T12:12:15;12.00;99.90
6118;DHT22;3089;48.202;11.510;2023-03-20T12:14:54;12.00;99.90
6118;DHT22;3089;48.202;11.510;2023-03-20T12:17:34;11.90;99.90
6118;DHT22;3089;48.202;11.510;2023-03-20T12:20:14;11.90;99.90
6118;DHT22;3089;48.202;11.510;2023-03-20T12:22:50;11.90;99.90
6118;DHT22;3089;48.202;11.510;2023-03-20T12:25:21;11.90;99.90
6118;DHT22;3089;48.202;11.510;2023-03-20T12:27:55;11.90;99.90
6118;DHT22;3089;48.202;11.510;2023-03-20T12:30:31;11.90;99.90
6118;DHT22;3089;48.202;11.510;2023-03-20T12:33:06;11.80;99.90
6118;DHT22;3089;48.202;11.510;2023-03-20T12:35:42;11.90;99.90
6118;DHT22;3089;48.202;11.510;2023-03-20T12:38:20;11.90;99.90
6118;DHT22;3089;48.202;11.510;2023-03-20T12:40:53;11.90;99.90
6118;DHT22;3089;48.202;11.510;2023-03-20T12:43:24;11.80;99.90
6118;DHT22;3089;48.202;11.510;2023-03-20T12:45:57;11.90;99.90
6118;DHT22;3089;48.202;11.510;2023-03-20T12:49:02;11.90;99.90
6118;DHT22;3089;48.202;11.510;2023-03-20T12:51:40;11.80;99.90
6118;DHT22;3089;48.202;11.510;2023-03-20T12:54:21;11.80;99.90
6118;DHT22;3089;48.202;11.510;2023-03-20T12:57:00;11.80;99.90
6118;DHT22;3089;48.202;11.510;2023-03-20T12:59:39;12.00;99.90
6118;DHT22;3089;48.202;11.510;2023-03-20T13:02:21;12.10;99.90
6118;DHT22;3089;48.202;11.510;2023-03-20T13:04:59;12.30;99.90
6118;DHT22;3089;48.202;11.510;2023-03-20T13:07:40;12.20;99.90
6118;DHT22;3089;48.202;11.510;2023-03-20T13:10:19;12.40;99.90
6118;DHT22;3089;48.202;11.510;2023-03-20T13:13:02;12.50;99.90
6118;DHT22;3089;48.202;11.510;2023-03-20T13:15:50;12.60;99.90
6118;DHT22;3089;48.202;11.510;2023-03-20T13:18:36;12.70;99.90
6118;DHT22;3089;48.202;11.510;2023-03-20T13:21:10;12.80;99.90
6118;DHT22;3089;48.202;11.510;2023-03-20T13:23:45;12.80;99.90
6118;DHT22;3089;48.202;11.510;2023-03-20T13:26:22;12.80;99.90
6118;DHT22;3089;48.202;11.510;2023-03-20T13:28:54;12.70;99.90
6118;DHT22;3089;48.202;11.510;2023-03-20T13:31:35;12.80;99.90
6118;DHT22;3089;48.202;11.510;2023-03-20T13:34:18;12.80;99.90
6118;DHT22;3089;48.202;11.510;2023-03-20T13:36:56;13.00;99.90
6118;DHT22;3089;48.202;11.510;2023-03-20T13:39:55;13.20;99.90
6118;DHT22;3089;48.202;11.510;2023-03-20T13:42:28;13.40;99.90
6118;DHT22;3089;48.202;11.510;2023-03-20T13:45:02;13.50;99.90
6118;DHT22;3089;48.202;11.510;2023-03-20T13:47:32;13.20;99.90
6118;DHT22;3089;48.202;11.510;2023-03-20T13:50:12;13.30;99.90
6118;DHT22;3089;48.202;11.510;2023-03-20T13:52:46;13.30;99.90
6118;DHT22;3089;48.202;11.510;2023-03-20T13:55:22;13.80;99.90
6118;DHT22;3089;48.202;11.510;2023-03-20T13:58:03;13.80;99.90
6118;DHT22;3089;48.202;11.510;2023-03-20T14:00:37;13.50;99.90
6118;DHT22;3089;48.202;11.510;2023-03-20T14:03:16;14.00;99.90
6118;DHT22;3089;48.202;11.510;2023-03-20T14:05:47;14.10;99.90
6118;DHT22;3089;48.202;11.510;2023-03-20T14:08:35;14.20;99.90
6118;DHT22;3089;48.202;11.510;2023-03-20T14:11:25;14.40;99.90
6118;DHT22;3089;48.202;11.510;2023-03-20T14:14:02;13.80;99.90
6118;DHT22;3089;48.202;11.510;2023-03-20T14:16:31;13.40;99.90
6118;DHT22;3089;48.202;11.510;2023-03-20T14:19:16;13.20;99.90
6118;DHT22;3089;48.202;11.510;2023-03-20T14:21:46;13.00;99.90
6118;DHT22;3089;48.202;11.510;2023-03-20T14:24:16;12.80;99.90
6118;DHT22;3089;48.202;11.510;2023-03-20T14:26:48;12.80;99.90
6118;DHT22;3089;48.202;11.510;2023-03-20T14:29:34;12.90;99.90
6118;DHT22;3089;48.202;11.510;2023-03-20T14:32:04;13.10;99.90
6118;DHT22;3089;48.202;11.510;2023-03-20T14:34:46;13.10;99.90
6118;DHT22;3089;48.202;11.510;2023-03-20T14:37:29;13.00;99.90
6118;DHT22;3089;48.202;11.510;2023-03-20T14:40:13;13.00;99.90
6118;DHT22;3089;48.202;11.510;2023-03-20T14:42:48;13.00;99.90
6118;DHT22;3089;48.202;11.510;2023-03-20T14:45:39;13.00;99.90
6118;DHT22;3089;48.202;11.510;2023-03-20T14:48:14;13.00;99.90
6118;DHT22;3089;48.202;11.510;2023-03-20T14:50:52;13.00;99.90
6118;DHT22;3089;48.202;11.510;2023-03-20T14:53:24;13.00;99.90
6118;DHT22;3089;48.202;11.510;2023-03-20T14:56:04;12.90;99.90
6118;DHT22;3089;48.202;11.510;2023-03-20T14:58:54;12.90;99.90
6118;DHT22;3089;48.202;11.510;2023-03-20T15:01:43;13.00;99.90
6118;DHT22;3089;48.202;11.510;2023-03-20T15:04:30;13.10;99.90
6118;DHT22;3089;48.202;11.510;2023-03-20T15:07:02;13.00;99.90
6118;DHT22;3089;48.202;11.510;2023-03-20T15:09:34;12.70;99.90
6118;DHT22;3089;48.202;11.510;2023-03-20T15:12:05;12.70;99.90
6118;DHT22;3089;48.202;11.510;2023-03-20T15:14:37;12.60;99.90
6118;DHT22;3089;48.202;11.510;2023-03-20T15:17:16;12.80;99.90
6118;DHT22;3089;48.202;11.510;2023-03-20T15:19:44;12.90;99.90
6118;DHT22;3089;48.202;11.510;2023-03-20T15:22:17;12.90;99.90
6118;DHT22;3089;48.202;11.510;2023-03-20T15:24:54;12.70;99.90
6118;DHT22;3089;48.202;11.510;2023-03-20T15:27:24;12.80;99.90
6118;DHT22;3089;48.202;11.510;2023-03-20T15:29:55;12.90;99.90
6118;DHT22;3089;48.202;11.510;2023-03-20T15:32:23;12.90;99.90
6118;DHT22;3089;48.202;11.510;2023-03-20T15:34:52;13.00;99.90
6118;DHT22;3089;48.202;11.510;2023-03-20T15:37:22;13.00;99.90
6118;DHT22;3089;48.202;11.510;2023-03-20T15:39:53;12.60;99.90
6118;DHT22;3089;48.202;11.510;2023-03-20T15:42:24;12.80;99.90
6118;DHT22;3089;48.202;11.510;2023-03-20T15:44:54;12.80;99.90
6118;DHT22;3089;48.202;11.510;2023-03-20T15:47:23;12.60;99.90
6118;DHT22;3089;48.202;11.510;2023-03-20T15:49:53;12.50;99.90
6118;DHT22;3089;48.202;11.510;2023-03-20T15:52:26;12.50;99.90
6118;DHT22;3089;48.202;11.510;2023-03-20T15:54:57;12.40;99.90
6118;DHT22;3089;48.202;11.510;2023-03-20T15:57:31;12.40;99.90
6118;DHT22;3089;48.202;11.510;2023-03-20T16:00:03;12.50;99.90
6118;DHT22;3089;48.202;11.510;2023-03-20T16:02:31;12.60;99.90
6118;DHT22;3089;48.202;11.510;2023-03-20T16:05:00;12.50;99.90
6118;DHT22;3089;48.202;11.510;2023-03-20T16:07:29;12.30;99.90
6118;DHT22;3089;48.202;11.510;2023-03-20T16:09:59;12.30;99.90
6118;DHT22;3089;48.202;11.510;2023-03-20T16:12:27;12.00;99.90
6118;DHT22;3089;48.202;11.510;2023-03-20T16:14:56;12.10;99.90
6118;DHT22;3089;48.202;11.510;2023-03-20T16:17:25;12.20;99.90
6118;DHT22;3089;48.202;11.510;2023-03-20T16:19:53;12.10;99.90
6118;DHT22;3089;48.202;11.510;2023-03-20T16:22:24;12.10;99.90
6118;DHT22;3089;48.202;11.510;2023-03-20T16:24:55;12.10;99.90
6118;DHT22;3089;48.202;11.510;2023-03-20T16:27:27;12.20;99.90
6118;DHT22;3089;48.202;11.510;2023-03-20T16:29:56;12.10;99.90